sensor_id;sensor_type;location;lat;lon;timestamp;P1;durP1;ratioP1;P2;durP2;ratioP2
8656;SDS011;4366;50.764;7.184;2022-11-15T00:00:13;7.03;;;5.80;;
8656;SDS011;4366;50.764;7.184;2022-11-15T00:05:35;5.67;;;5.00;;
8656;SDS011;4366;50.764;7.184;2022-11-15T00:10:59;7.03;;;5.40;;
8656;SDS011;4366;50.764;7.184;2022-11-15T00:16:20;6.60;;;5.37;;
8656;SDS011;4366;50.764;7.184;2022-11-15T00:21:40;6.80;;;5.57;;
8656;SDS011;4366;50.764;7.184;2022-11-15T00:27:01;9.37;;;6.20;;
8656;SDS011;4366;50.764;7.184;2022-11-15T00:32:25;6.17;;;5.57;;
8656;SDS011;4366;50.764;7.184;2022-11-15T00:37:45;6.40;;;5.80;;
8656;SDS011;4366;50.764;7.184;2022-11-15T00:43:07;8.60;;;5.47;;
8656;SDS011;4366;50.764;7.184;2022-11-15T00:48:27;6.00;;;5.43;;
8656;SDS011;4366;50.764;7.184;2022-11-15T00:53:48;8.33;;;5.57;;
8656;SDS011;4366;50.764;7.184;2022-11-15T00:59:08;7.23;;;5.80;;
8656;SDS011;4366;50.764;7.184;2022-11-15T01:04:28;5.80;;;5.20;;
8656;SDS011;4366;50.764;7.184;2022-11-15T01:09:48;6.70;;;5.17;;
8656;SDS011;4366;50.764;7.184;2022-11-15T01:15:08;5.60;;;5.00;;
8656;SDS011;4366;50.764;7.184;2022-11-15T01:20:28;5.73;;;4.73;;
8656;SDS011;4366;50.764;7.184;2022-11-15T01:25:48;7.00;;;4.80;;
8656;SDS011;4366;50.764;7.184;2022-11-15T01:31:12;9.67;;;5.53;;
8656;SDS011;4366;50.764;7.184;2022-11-15T01:36:34;6.63;;;4.63;;
8656;SDS011;4366;50.764;7.184;2022-11-15T01:41:54;5.27;;;4.63;;
8656;SDS011;4366;50.764;7.184;2022-11-15T01:47:17;5.37;;;4.53;;
8656;SDS011;4366;50.764;7.184;2022-11-15T01:52:39;5.93;;;5.00;;
8656;SDS011;4366;50.764;7.184;2022-11-15T01:58:01;5.00;;;4.43;;
8656;SDS011;4366;50.764;7.184;2022-11-15T02:03:23;7.77;;;4.77;;
8656;SDS011;4366;50.764;7.184;2022-11-15T02:08:49;4.97;;;4.50;;
8656;SDS011;4366;50.764;7.184;2022-11-15T02:14:10;4.90;;;4.40;;
8656;SDS011;4366;50.764;7.184;2022-11-15T02:19:46;5.63;;;4.23;;
8656;SDS011;4366;50.764;7.184;2022-11-15T02:31:04;4.47;;;3.80;;
8656;SDS011;4366;50.764;7.184;2022-11-15T02:42:04;4.17;;;3.67;;
8656;SDS011;4366;50.764;7.184;2022-11-15T02:47:47;4.03;;;3.63;;
8656;SDS011;4366;50.764;7.184;2022-11-15T02:53:09;4.33;;;3.93;;
8656;SDS011;4366;50.764;7.184;2022-11-15T03:04:35;4.60;;;4.20;;
8656;SDS011;4366;50.764;7.184;2022-11-15T03:10:12;4.33;;;3.93;;
8656;SDS011;4366;50.764;7.184;2022-11-15T03:15:38;6.37;;;4.00;;
8656;SDS011;4366;50.764;7.184;2022-11-15T03:21:07;5.40;;;3.87;;
8656;SDS011;4366;50.764;7.184;2022-11-15T03:26:28;4.80;;;4.40;;
8656;SDS011;4366;50.764;7.184;2022-11-15T03:32:03;6.27;;;4.77;;
8656;SDS011;4366;50.764;7.184;2022-11-15T03:43:33;5.00;;;4.60;;
8656;SDS011;4366;50.764;7.184;2022-11-15T03:49:03;5.47;;;4.40;;
8656;SDS011;4366;50.764;7.184;2022-11-15T03:54:27;4.20;;;3.87;;
8656;SDS011;4366;50.764;7.184;2022-11-15T03:59:48;4.00;;;3.60;;
8656;SDS011;4366;50.764;7.184;2022-11-15T04:05:08;3.80;;;3.50;;
8656;SDS011;4366;50.764;7.184;2022-11-15T04:10:29;4.20;;;3.63;;
8656;SDS011;4366;50.764;7.184;2022-11-15T04:15:49;3.87;;;3.57;;
8656;SDS011;4366;50.764;7.184;2022-11-15T04:21:09;3.70;;;3.40;;
8656;SDS011;4366;50.764;7.184;2022-11-15T04:26:48;3.10;;;2.80;;
8656;SDS011;4366;50.764;7.184;2022-11-15T04:32:09;3.77;;;3.47;;
8656;SDS011;4366;50.764;7.184;2022-11-15T04:37:29;2.93;;;2.63;;
8656;SDS011;4366;50.764;7.184;2022-11-15T04:42:49;3.03;;;2.83;;
8656;SDS011;4366;50.764;7.184;2022-11-15T04:48:09;3.73;;;2.60;;
8656;SDS011;4366;50.764;7.184;2022-11-15T04:53:29;3.20;;;2.90;;
8656;SDS011;4366;50.764;7.184;2022-11-15T04:58:50;3.53;;;2.90;;
8656;SDS011;4366;50.764;7.184;2022-11-15T05:04:10;4.03;;;2.87;;
8656;SDS011;4366;50.764;7.184;2022-11-15T05:09:40;2.50;;;2.40;;
8656;SDS011;4366;50.764;7.184;2022-11-15T05:15:00;2.57;;;2.20;;
8656;SDS011;4366;50.764;7.184;2022-11-15T05:20:20;2.37;;;2.17;;
8656;SDS011;4366;50.764;7.184;2022-11-15T05:25:40;2.20;;;2.00;;
8656;SDS011;4366;50.764;7.184;2022-11-15T05:31:05;2.17;;;1.97;;
8656;SDS011;4366;50.764;7.184;2022-11-15T05:36:35;2.00;;;1.90;;
8656;SDS011;4366;50.764;7.184;2022-11-15T05:42:00;2.00;;;1.90;;
8656;SDS011;4366;50.764;7.184;2022-11-15T05:47:24;1.90;;;1.80;;
8656;SDS011;4366;50.764;7.184;2022-11-15T05:52:46;2.37;;;1.80;;
8656;SDS011;4366;50.764;7.184;2022-11-15T05:58:06;2.30;;;2.20;;
8656;SDS011;4366;50.764;7.184;2022-11-15T06:03:26;2.40;;;2.20;;
8656;SDS011;4366;50.764;7.184;2022-11-15T06:08:47;2.47;;;2.03;;
8656;SDS011;4366;50.764;7.184;2022-11-15T06:14:07;2.00;;;1.90;;
8656;SDS011;4366;50.764;7.184;2022-11-15T06:19:28;2.03;;;1.93;;
8656;SDS011;4366;50.764;7.184;2022-11-15T06:24:52;2.27;;;2.07;;
8656;SDS011;4366;50.764;7.184;2022-11-15T06:30:12;2.13;;;2.00;;
8656;SDS011;4366;50.764;7.184;2022-11-15T06:35:33;1.87;;;1.77;;
8656;SDS011;4366;50.764;7.184;2022-11-15T06:40:55;1.90;;;1.80;;
8656;SDS011;4366;50.764;7.184;2022-11-15T06:46:15;2.00;;;1.90;;
8656;SDS011;4366;50.764;7.184;2022-11-15T06:51:35;2.00;;;1.80;;
8656;SDS011;4366;50.764;7.184;2022-11-15T06:56:56;1.70;;;1.60;;
8656;SDS011;4366;50.764;7.184;2022-11-15T07:02:16;1.73;;;1.63;;
8656;SDS011;4366;50.764;7.184;2022-11-15T07:07:36;2.13;;;2.03;;
8656;SDS011;4366;50.764;7.184;2022-11-15T07:12:56;1.47;;;1.40;;
8656;SDS011;4366;50.764;7.184;2022-11-15T07:18:16;1.87;;;1.77;;
8656;SDS011;4366;50.764;7.184;2022-11-15T07:23:37;1.63;;;1.53;;
8656;SDS011;4366;50.764;7.184;2022-11-15T07:28:57;3.07;;;1.77;;
8656;SDS011;4366;50.764;7.184;2022-11-15T07:34:18;1.60;;;1.50;;
8656;SDS011;4366;50.764;7.184;2022-11-15T07:39:38;1.73;;;1.63;;
8656;SDS011;4366;50.764;7.184;2022-11-15T07:44:58;3.27;;;1.70;;
8656;SDS011;4366;50.764;7.184;2022-11-15T07:50:18;1.63;;;1.57;;
8656;SDS011;4366;50.764;7.184;2022-11-15T07:55:39;1.57;;;1.53;;
8656;SDS011;4366;50.764;7.184;2022-11-15T08:01:07;1.70;;;1.60;;
8656;SDS011;4366;50.764;7.184;2022-11-15T08:06:28;1.90;;;1.67;;
8656;SDS011;4366;50.764;7.184;2022-11-15T08:11:49;1.40;;;1.30;;
8656;SDS011;4366;50.764;7.184;2022-11-15T08:17:09;1.47;;;1.37;;
8656;SDS011;4366;50.764;7.184;2022-11-15T08:22:29;1.63;;;1.53;;
8656;SDS011;4366;50.764;7.184;2022-11-15T08:27:51;2.90;;;1.60;;
8656;SDS011;4366;50.764;7.184;2022-11-15T08:33:12;1.37;;;1.37;;
8656;SDS011;4366;50.764;7.184;2022-11-15T08:38:33;1.70;;;1.60;;
8656;SDS011;4366;50.764;7.184;2022-11-15T08:43:53;1.70;;;1.60;;
8656;SDS011;4366;50.764;7.184;2022-11-15T08:49:13;1.70;;;1.60;;
8656;SDS011;4366;50.764;7.184;2022-11-15T08:54:34;1.87;;;1.70;;
8656;SDS011;4366;50.764;7.184;2022-11-15T08:59:54;1.70;;;1.60;;
8656;SDS011;4366;50.764;7.184;2022-11-15T09:05:14;1.40;;;1.30;;
8656;SDS011;4366;50.764;7.184;2022-11-15T09:10:35;1.03;;;1.03;;
8656;SDS011;4366;50.764;7.184;2022-11-15T09:15:59;1.57;;;1.47;;
8656;SDS011;4366;50.764;7.184;2022-11-15T09:21:20;1.30;;;1.20;;
8656;SDS011;4366;50.764;7.184;2022-11-15T09:26:40;1.77;;;1.37;;
8656;SDS011;4366;50.764;7.184;2022-11-15T09:32:01;1.47;;;1.30;;
8656;SDS011;4366;50.764;7.184;2022-11-15T09:37:22;1.23;;;1.20;;
8656;SDS011;4366;50.764;7.184;2022-11-15T09:42:54;1.30;;;1.20;;
8656;SDS011;4366;50.764;7.184;2022-11-15T09:54:00;1.17;;;0.97;;
8656;SDS011;4366;50.764;7.184;2022-11-15T10:04:45;1.13;;;1.03;;
8656;SDS011;4366;50.764;7.184;2022-11-15T10:09:50;1.33;;;1.10;;
8656;SDS011;4366;50.764;7.184;2022-11-15T10:14:57;1.67;;;0.90;;
8656;SDS011;4366;50.764;7.184;2022-11-15T10:25:16;1.43;;;1.30;;
8656;SDS011;4366;50.764;7.184;2022-11-15T10:30:33;0.77;;;0.77;;
8656;SDS011;4366;50.764;7.184;2022-11-15T10:35:39;0.70;;;0.70;;
8656;SDS011;4366;50.764;7.184;2022-11-15T10:40:41;1.20;;;0.90;;
8656;SDS011;4366;50.764;7.184;2022-11-15T10:45:45;0.70;;;0.70;;
8656;SDS011;4366;50.764;7.184;2022-11-15T10:50:47;1.20;;;1.00;;
8656;SDS011;4366;50.764;7.184;2022-11-15T10:55:52;1.77;;;1.10;;
8656;SDS011;4366;50.764;7.184;2022-11-15T11:00:55;0.80;;;0.80;;
8656;SDS011;4366;50.764;7.184;2022-11-15T11:06:04;1.17;;;1.00;;
8656;SDS011;4366;50.764;7.184;2022-11-15T11:11:09;1.70;;;0.90;;
8656;SDS011;4366;50.764;7.184;2022-11-15T11:21:22;1.17;;;0.80;;
8656;SDS011;4366;50.764;7.184;2022-11-15T11:26:40;1.90;;;0.97;;
8656;SDS011;4366;50.764;7.184;2022-11-15T11:37:10;1.20;;;0.70;;
8656;SDS011;4366;50.764;7.184;2022-11-15T11:47:44;1.33;;;0.77;;
8656;SDS011;4366;50.764;7.184;2022-11-15T11:58:50;1.00;;;1.00;;
8656;SDS011;4366;50.764;7.184;2022-11-15T12:08:58;0.87;;;0.87;;
8656;SDS011;4366;50.764;7.184;2022-11-15T12:14:05;1.00;;;1.00;;
8656;SDS011;4366;50.764;7.184;2022-11-15T12:19:23;1.63;;;1.20;;
8656;SDS011;4366;50.764;7.184;2022-11-15T12:24:27;1.30;;;1.10;;
8656;SDS011;4366;50.764;7.184;2022-11-15T12:29:33;2.57;;;1.27;;
8656;SDS011;4366;50.764;7.184;2022-11-15T12:34:40;1.60;;;1.50;;
8656;SDS011;4366;50.764;7.184;2022-11-15T12:40:14;1.80;;;1.70;;
8656;SDS011;4366;50.764;7.184;2022-11-15T12:45:26;1.87;;;1.77;;
8656;SDS011;4366;50.764;7.184;2022-11-15T13:01:06;2.40;;;1.83;;
8656;SDS011;4366;50.764;7.184;2022-11-15T13:06:08;1.87;;;1.77;;
8656;SDS011;4366;50.764;7.184;2022-11-15T13:16:48;2.40;;;1.63;;
8656;SDS011;4366;50.764;7.184;2022-11-15T13:21:50;1.90;;;1.80;;
8656;SDS011;4366;50.764;7.184;2022-11-15T13:27:17;3.33;;;1.83;;
8656;SDS011;4366;50.764;7.184;2022-11-15T13:32:20;2.43;;;1.80;;
8656;SDS011;4366;50.764;7.184;2022-11-15T13:42:23;1.70;;;1.60;;
8656;SDS011;4366;50.764;7.184;2022-11-15T13:47:30;2.37;;;1.40;;
8656;SDS011;4366;50.764;7.184;2022-11-15T13:52:33;1.60;;;1.50;;
8656;SDS011;4366;50.764;7.184;2022-11-15T14:03:22;1.60;;;1.50;;
8656;SDS011;4366;50.764;7.184;2022-11-15T14:08:25;3.17;;;1.67;;
8656;SDS011;4366;50.764;7.184;2022-11-15T14:13:27;1.43;;;1.37;;
8656;SDS011;4366;50.764;7.184;2022-11-15T14:18:44;1.63;;;1.53;;
8656;SDS011;4366;50.764;7.184;2022-11-15T14:23:47;3.13;;;1.33;;
8656;SDS011;4366;50.764;7.184;2022-11-15T14:28:50;3.30;;;1.40;;
8656;SDS011;4366;50.764;7.184;2022-11-15T14:33:52;2.67;;;1.40;;
8656;SDS011;4366;50.764;7.184;2022-11-15T14:38:53;1.30;;;1.20;;
8656;SDS011;4366;50.764;7.184;2022-11-15T14:43:55;1.80;;;1.40;;
8656;SDS011;4366;50.764;7.184;2022-11-15T14:48:57;1.60;;;1.50;;
8656;SDS011;4366;50.764;7.184;2022-11-15T14:53:59;1.20;;;1.20;;
8656;SDS011;4366;50.764;7.184;2022-11-15T14:59:00;1.93;;;1.30;;
8656;SDS011;4366;50.764;7.184;2022-11-15T15:04:02;1.63;;;1.30;;
8656;SDS011;4366;50.764;7.184;2022-11-15T15:09:04;1.50;;;1.40;;
8656;SDS011;4366;50.764;7.184;2022-11-15T15:14:07;1.30;;;1.30;;
8656;SDS011;4366;50.764;7.184;2022-11-15T15:19:09;1.53;;;1.40;;
8656;SDS011;4366;50.764;7.184;2022-11-15T15:24:13;1.60;;;1.50;;
8656;SDS011;4366;50.764;7.184;2022-11-15T15:29:15;3.17;;;1.70;;
8656;SDS011;4366;50.764;7.184;2022-11-15T15:34:17;1.63;;;1.53;;
8656;SDS011;4366;50.764;7.184;2022-11-15T15:39:19;1.67;;;1.57;;
8656;SDS011;4366;50.764;7.184;2022-11-15T15:44:20;1.70;;;1.60;;
8656;SDS011;4366;50.764;7.184;2022-11-15T15:49:22;1.30;;;1.20;;
8656;SDS011;4366;50.764;7.184;2022-11-15T15:54:24;2.00;;;1.77;;
8656;SDS011;4366;50.764;7.184;2022-11-15T15:59:25;1.60;;;1.50;;
8656;SDS011;4366;50.764;7.184;2022-11-15T16:04:27;1.67;;;1.57;;
8656;SDS011;4366;50.764;7.184;2022-11-15T16:09:29;1.53;;;1.43;;
8656;SDS011;4366;50.764;7.184;2022-11-15T16:14:49;1.80;;;1.70;;
8656;SDS011;4366;50.764;7.184;2022-11-15T16:19:51;2.60;;;1.80;;
8656;SDS011;4366;50.764;7.184;2022-11-15T16:24:53;1.63;;;1.50;;
8656;SDS011;4366;50.764;7.184;2022-11-15T16:29:55;1.93;;;1.73;;
8656;SDS011;4366;50.764;7.184;2022-11-15T16:34:57;1.60;;;1.50;;
8656;SDS011;4366;50.764;7.184;2022-11-15T16:39:59;2.77;;;1.70;;
8656;SDS011;4366;50.764;7.184;2022-11-15T16:45:02;1.93;;;1.83;;
8656;SDS011;4366;50.764;7.184;2022-11-15T16:50:04;1.77;;;1.67;;
8656;SDS011;4366;50.764;7.184;2022-11-15T16:55:06;1.70;;;1.60;;
8656;SDS011;4366;50.764;7.184;2022-11-15T17:00:09;2.33;;;1.60;;
8656;SDS011;4366;50.764;7.184;2022-11-15T17:05:13;1.67;;;1.57;;
8656;SDS011;4366;50.764;7.184;2022-11-15T17:10:21;1.80;;;1.70;;
8656;SDS011;4366;50.764;7.184;2022-11-15T17:15:23;1.60;;;1.50;;
8656;SDS011;4366;50.764;7.184;2022-11-15T17:20:25;2.10;;;1.90;;
8656;SDS011;4366;50.764;7.184;2022-11-15T17:25:27;1.93;;;1.83;;
8656;SDS011;4366;50.764;7.184;2022-11-15T17:30:28;2.20;;;1.80;;
8656;SDS011;4366;50.764;7.184;2022-11-15T17:35:30;1.57;;;1.50;;
8656;SDS011;4366;50.764;7.184;2022-11-15T17:40:31;2.17;;;2.00;;
8656;SDS011;4366;50.764;7.184;2022-11-15T17:45:33;1.97;;;1.87;;
8656;SDS011;4366;50.764;7.184;2022-11-15T17:50:35;2.00;;;1.90;;
8656;SDS011;4366;50.764;7.184;2022-11-15T17:55:36;2.63;;;2.28;;
8656;SDS011;4366;50.764;7.184;2022-11-15T18:00:38;2.10;;;2.00;;
8656;SDS011;4366;50.764;7.184;2022-11-15T18:05:40;2.17;;;2.00;;
8656;SDS011;4366;50.764;7.184;2022-11-15T18:10:44;2.30;;;2.10;;
8656;SDS011;4366;50.764;7.184;2022-11-15T18:15:52;2.30;;;2.10;;
8656;SDS011;4366;50.764;7.184;2022-11-15T18:20:59;2.80;;;2.40;;
8656;SDS011;4366;50.764;7.184;2022-11-15T18:26:22;2.50;;;2.20;;
8656;SDS011;4366;50.764;7.184;2022-11-15T18:31:28;2.63;;;2.43;;
8656;SDS011;4366;50.764;7.184;2022-11-15T18:36:33;3.47;;;2.70;;
8656;SDS011;4366;50.764;7.184;2022-11-15T18:41:34;2.80;;;2.57;;
8656;SDS011;4366;50.764;7.184;2022-11-15T18:46:36;2.90;;;2.70;;
8656;SDS011;4366;50.764;7.184;2022-11-15T18:51:40;3.20;;;2.70;;
8656;SDS011;4366;50.764;7.184;2022-11-15T18:56:42;3.17;;;2.87;;
8656;SDS011;4366;50.764;7.184;2022-11-15T19:01:46;3.30;;;3.00;;
8656;SDS011;4366;50.764;7.184;2022-11-15T19:06:49;3.30;;;3.00;;
8656;SDS011;4366;50.764;7.184;2022-11-15T19:11:51;3.53;;;3.20;;
8656;SDS011;4366;50.764;7.184;2022-11-15T19:16:52;3.43;;;3.17;;
8656;SDS011;4366;50.764;7.184;2022-11-15T19:21:55;4.30;;;3.50;;
8656;SDS011;4366;50.764;7.184;2022-11-15T19:26:59;3.40;;;3.10;;
8656;SDS011;4366;50.764;7.184;2022-11-15T19:32:01;6.67;;;3.53;;
8656;SDS011;4366;50.764;7.184;2022-11-15T19:37:04;3.63;;;3.33;;
8656;SDS011;4366;50.764;7.184;2022-11-15T19:42:05;4.43;;;4.03;;
8656;SDS011;4366;50.764;7.184;2022-11-15T19:52:34;5.37;;;4.17;;
8656;SDS011;4366;50.764;7.184;2022-11-15T19:57:36;4.20;;;3.80;;
8656;SDS011;4366;50.764;7.184;2022-11-15T20:02:38;4.93;;;4.47;;
8656;SDS011;4366;50.764;7.184;2022-11-15T20:07:39;5.03;;;4.40;;
8656;SDS011;4366;50.764;7.184;2022-11-15T20:12:41;5.53;;;4.30;;
8656;SDS011;4366;50.764;7.184;2022-11-15T20:17:43;5.50;;;4.37;;
8656;SDS011;4366;50.764;7.184;2022-11-15T20:22:44;4.93;;;4.43;;
8656;SDS011;4366;50.764;7.184;2022-11-15T20:27:46;4.43;;;4.03;;
8656;SDS011;4366;50.764;7.184;2022-11-15T20:32:48;4.80;;;4.30;;
8656;SDS011;4366;50.764;7.184;2022-11-15T20:37:50;4.83;;;4.43;;
8656;SDS011;4366;50.764;7.184;2022-11-15T20:42:52;5.10;;;4.60;;
8656;SDS011;4366;50.764;7.184;2022-11-15T20:47:54;4.90;;;4.40;;
8656;SDS011;4366;50.764;7.184;2022-11-15T20:52:57;5.13;;;4.20;;
8656;SDS011;4366;50.764;7.184;2022-11-15T20:57:58;5.37;;;4.40;;
8656;SDS011;4366;50.764;7.184;2022-11-15T21:03:00;5.73;;;4.10;;
8656;SDS011;4366;50.764;7.184;2022-11-15T21:08:08;5.07;;;3.90;;
8656;SDS011;4366;50.764;7.184;2022-11-15T21:13:10;4.50;;;4.10;;
8656;SDS011;4366;50.764;7.184;2022-11-15T21:18:12;6.00;;;4.60;;
8656;SDS011;4366;50.764;7.184;2022-11-15T21:23:14;5.53;;;3.87;;
8656;SDS011;4366;50.764;7.184;2022-11-15T21:28:16;4.10;;;3.70;;
8656;SDS011;4366;50.764;7.184;2022-11-15T21:33:17;4.50;;;4.10;;
8656;SDS011;4366;50.764;7.184;2022-11-15T21:38:19;4.80;;;3.83;;
8656;SDS011;4366;50.764;7.184;2022-11-15T21:43:23;4.20;;;3.80;;
8656;SDS011;4366;50.764;7.184;2022-11-15T21:48:26;5.33;;;3.30;;
8656;SDS011;4366;50.764;7.184;2022-11-15T21:53:28;3.70;;;3.27;;
8656;SDS011;4366;50.764;7.184;2022-11-15T21:58:31;4.20;;;3.80;;
8656;SDS011;4366;50.764;7.184;2022-11-15T22:03:33;4.17;;;3.40;;
8656;SDS011;4366;50.764;7.184;2022-11-15T22:08:35;3.43;;;3.13;;
8656;SDS011;4366;50.764;7.184;2022-11-15T22:13:37;3.40;;;3.17;;
8656;SDS011;4366;50.764;7.184;2022-11-15T22:18:39;3.37;;;3.07;;
8656;SDS011;4366;50.764;7.184;2022-11-15T22:23:41;3.43;;;3.13;;
8656;SDS011;4366;50.764;7.184;2022-11-15T22:28:43;3.03;;;2.80;;
8656;SDS011;4366;50.764;7.184;2022-11-15T22:33:45;3.70;;;3.40;;
8656;SDS011;4366;50.764;7.184;2022-11-15T22:38:47;3.70;;;3.17;;
8656;SDS011;4366;50.764;7.184;2022-11-15T22:43:49;3.67;;;3.37;;
8656;SDS011;4366;50.764;7.184;2022-11-15T22:48:50;3.77;;;3.20;;
8656;SDS011;4366;50.764;7.184;2022-11-15T22:53:52;4.60;;;3.10;;
8656;SDS011;4366;50.764;7.184;2022-11-15T22:58:53;3.73;;;3.43;;
8656;SDS011;4366;50.764;7.184;2022-11-15T23:03:55;4.00;;;3.63;;
8656;SDS011;4366;50.764;7.184;2022-11-15T23:08:57;3.40;;;3.10;;
8656;SDS011;4366;50.764;7.184;2022-11-15T23:13:58;3.53;;;3.03;;
8656;SDS011;4366;50.764;7.184;2022-11-15T23:19:10;5.17;;;3.80;;
8656;SDS011;4366;50.764;7.184;2022-11-15T23:24:12;3.97;;;3.57;;
8656;SDS011;4366;50.764;7.184;2022-11-15T23:29:15;3.77;;;3.37;;
8656;SDS011;4366;50.764;7.184;2022-11-15T23:34:18;4.47;;;3.80;;
8656;SDS011;4366;50.764;7.184;2022-11-15T23:39:22;4.20;;;3.80;;
8656;SDS011;4366;50.764;7.184;2022-11-15T23:44:24;3.90;;;3.60;;
8656;SDS011;4366;50.764;7.184;2022-11-15T23:49:26;5.47;;;4.10;;
8656;SDS011;4366;50.764;7.184;2022-11-15T23:54:27;4.50;;;3.97;;
8656;SDS011;4366;50.764;7.184;2022-11-15T23:59:30;4.70;;;4.20;;
